Time;durP1;ratioP1;P1;durP2;ratioP2;P2;SDS_P1;SDS_P2;PMS_P1;PMS_P2;Temp;Humidity;BMP_temperature;BMP_pressure;BME280_temperature;BME280_humidity;BME280_pressure;Samples;Min_cycle;Max_cycle;Signal;HPM_P1;HPM_P2
2022/02/16 00:01:18;;;;;;;52.20;29.30;;;;;;;5.04;71.15;99768.98;105888;1274;97846;-71
2022/02/16 00:03:50;;;;;;;49.30;28.60;;;;;;;5.04;71.33;99771.39;106019;1274;97949;-71
2022/02/16 00:06:22;;;;;;;54.80;31.20;;;;;;;5.05;71.18;99772.23;105933;1274;137950;-70
2022/02/16 00:08:54;;;;;;;51.80;31.70;;;;;;;5.05;71.28;99767.58;106043;1274;107826;-71
2022/02/16 00:11:25;;;;;;;57.10;33.20;;;;;;;5.07;71.38;99762.02;105937;1274;138130;-70
2022/02/16 00:13:59;;;;;;;58.50;33.60;;;;;;;5.07;71.33;99765.64;107619;1274;96037;-71
2022/02/16 00:16:31;;;;;;;56.10;33.20;;;;;;;5.05;71.22;99757.23;107401;1274;137701;-71
2022/02/16 00:19:03;;;;;;;56.10;31.90;;;;;;;5.02;71.36;99754.16;106177;1274;112453;-71
2022/02/16 00:21:35;;;;;;;51.50;30.30;;;;;;;5.00;71.54;99749.02;105994;1274;108860;-71
2022/02/16 00:24:09;;;;;;;49.50;30.20;;;;;;;4.99;71.50;99747.68;105846;1274;138364;-71
2022/02/16 00:26:41;;;;;;;54.90;30.60;;;;;;;4.96;71.54;99750.67;107586;1274;95760;-71
2022/02/16 00:29:13;;;;;;;54.70;31.10;;;;;;;4.94;71.54;99750.88;107529;1273;139094;-71
2022/02/16 00:31:45;;;;;;;53.70;30.90;;;;;;;4.93;71.71;99750.04;107632;1273;112501;-71
2022/02/16 00:34:17;;;;;;;59.10;33.20;;;;;;;4.92;71.41;99752.46;107668;1274;107551;-72
2022/02/16 00:36:50;;;;;;;59.70;34.00;;;;;;;4.89;71.65;99751.33;107464;1274;138159;-71
2022/02/16 00:39:22;;;;;;;60.70;34.80;;;;;;;4.87;71.81;99743.42;107549;1274;96220;-71
2022/02/16 00:41:54;;;;;;;60.90;33.10;;;;;;;4.83;71.60;99737.27;107516;1273;138811;-72
2022/02/16 00:44:28;;;;;;;59.00;32.30;;;;;;;4.83;71.79;99732.95;106584;1273;112873;-71
2022/02/16 00:47:00;;;;;;;56.10;31.90;;;;;;;4.83;71.69;99733.98;106588;1273;138642;-71
2022/02/16 00:49:33;;;;;;;48.60;29.60;;;;;;;4.81;72.12;99730.93;107518;1274;108994;-72
2022/02/16 00:52:07;;;;;;;50.90;30.90;;;;;;;4.81;71.76;99729.04;107428;1274;97432;-71
2022/02/16 00:54:40;;;;;;;57.40;31.40;;;;;;;4.81;72.04;99720.77;107432;1274;138715;-71
2022/02/16 00:57:12;;;;;;;55.70;31.10;;;;;;;4.77;71.88;99720.48;106550;1273;112601;-70
2022/02/16 00:59:44;;;;;;;54.10;32.70;;;;;;;4.76;71.84;99718.27;106007;1273;138153;-71
2022/02/16 01:02:16;;;;;;;54.60;32.70;;;;;;;4.72;71.87;99715.41;106924;1273;108938;-72
2022/02/16 01:04:48;;;;;;;48.80;29.90;;;;;;;4.68;72.08;99711.02;107195;1273;138619;-71
2022/02/16 01:07:20;;;;;;;51.60;30.00;;;;;;;4.61;72.33;99707.16;106521;1274;98011;-70
2022/02/16 01:09:52;;;;;;;46.50;28.10;;;;;;;4.54;72.03;99703.84;106031;1274;112075;-70
2022/02/16 01:12:24;;;;;;;47.40;28.30;;;;;;;4.50;72.58;99710.80;105886;1274;138581;-71
2022/02/16 01:14:59;;;;;;;48.60;29.80;;;;;;;4.46;72.46;99706.17;105926;1274;108043;-71
2022/02/16 01:17:34;;;;;;;49.00;30.00;;;;;;;4.44;72.68;99705.73;106806;1274;138434;-72
2022/02/16 01:20:17;;;;;;;51.50;29.50;;;;;;;4.39;72.65;99700.30;107401;1274;96125;-72
2022/02/16 01:22:52;;;;;;;48.20;30.00;;;;;;;4.34;72.82;99696.08;107407;1274;139755;-72
2022/02/16 01:25:24;;;;;;;52.40;30.90;;;;;;;4.31;72.85;99693.89;107461;1274;109034;-71
2022/02/16 01:27:57;;;;;;;45.80;28.90;;;;;;;4.27;73.13;99695.48;107481;1274;109230;-72
2022/02/16 01:30:30;;;;;;;48.30;29.60;;;;;;;4.24;73.39;99684.52;107369;1273;139533;-71
2022/02/16 01:33:11;;;;;;;47.80;28.30;;;;;;;4.24;73.31;99676.42;107595;1274;96054;-71
2022/02/16 01:35:49;;;;;;;50.40;28.40;;;;;;;4.24;73.14;99672.29;107359;1274;138779;-71
2022/02/16 01:38:21;;;;;;;49.40;29.70;;;;;;;4.24;73.38;99669.20;107507;1273;108749;-71
2022/02/16 01:41:16;;;;;;;51.40;31.10;;;;;;;4.23;73.39;99665.60;107199;1274;138045;-72
2022/02/16 01:43:54;;;;;;;51.60;30.70;;;;;;;4.19;73.43;99667.21;107407;1276;96086;-72
2022/02/16 01:46:27;;;;;;;52.20;30.80;;;;;;;4.12;73.59;99661.82;107514;1274;96020;-72
2022/02/16 01:49:01;;;;;;;56.80;29.50;;;;;;;4.04;73.52;99660.23;107065;1271;138104;-71
2022/02/16 01:51:38;;;;;;;52.40;29.80;;;;;;;3.96;73.64;99654.49;106126;1273;107400;-71
2022/02/16 01:54:11;;;;;;;47.10;28.50;;;;;;;3.90;73.99;99651.66;105933;1273;138799;-70
2022/02/16 01:56:47;;;;;;;48.80;29.40;;;;;;;3.86;74.24;99650.85;107648;1273;96070;-71
2022/02/16 01:59:21;;;;;;;48.50;30.90;;;;;;;3.82;74.27;99655.05;107409;1273;137926;-71
2022/02/16 02:02:29;;;;;;;53.40;31.60;;;;;;;3.74;74.53;99653.95;106040;1274;112382;-71
2022/02/16 02:05:08;;;;;;;53.90;31.30;;;;;;;3.66;74.54;99647.36;107028;1274;138411;-72
2022/02/16 02:07:40;;;;;;;48.80;28.20;;;;;;;3.57;75.03;99645.08;107526;1274;109731;-71
2022/02/16 02:10:13;;;;;;;51.40;30.30;;;;;;;3.48;75.26;99646.73;107388;1274;96284;-71
2022/02/16 02:12:51;;;;;;;49.00;28.70;;;;;;;3.43;75.55;99645.80;107505;1274;138731;-72
2022/02/16 02:15:26;;;;;;;52.20;30.30;;;;;;;3.38;75.54;99646.16;107396;1274;112361;-71
2022/02/16 02:18:27;;;;;;;49.60;30.00;;;;;;;3.36;75.70;99645.17;107273;1274;138811;-71
2022/02/16 02:21:00;;;;;;;50.60;31.10;;;;;;;3.33;75.69;99643.83;107456;1276;107531;-72
2022/02/16 02:23:31;;;;;;;53.80;32.10;;;;;;;3.32;75.88;99642.14;107414;1273;138452;-71
2022/02/16 02:26:03;;;;;;;50.50;30.40;;;;;;;3.29;75.91;99637.36;107488;1273;96974;-72
2022/02/16 02:28:35;;;;;;;48.60;29.90;;;;;;;3.26;75.95;99636.71;106785;1273;110954;-70
2022/02/16 02:31:08;;;;;;;52.50;29.50;;;;;;;3.23;76.14;99635.88;107370;1274;139108;-72
2022/02/16 02:33:41;;;;;;;52.40;29.70;;;;;;;3.19;76.06;99626.81;107509;1273;157436;-72
2022/02/16 02:36:12;;;;;;;54.00;30.50;;;;;;;3.18;76.15;99622.89;107489;1273;138798;-71
2022/02/16 02:38:44;;;;;;;57.30;31.20;;;;;;;3.16;76.22;99619.30;107324;1274;96174;-72
2022/02/16 02:41:16;;;;;;;54.70;31.20;;;;;;;3.13;76.38;99622.09;105983;1273;137880;-69
2022/02/16 02:43:50;;;;;;;53.50;30.30;;;;;;;3.11;76.41;99620.74;107545;1274;109252;-70
2022/02/16 02:46:22;;;;;;;54.70;31.20;;;;;;;3.08;76.74;99618.73;107415;1274;107750;-70
2022/02/16 02:49:00;;;;;;;48.60;29.40;;;;;;;3.06;76.59;99616.86;107415;1273;139634;-71
2022/02/16 02:51:32;;;;;;;49.10;29.60;;;;;;;3.05;76.69;99617.20;107486;1274;96310;-71
2022/02/16 02:54:04;;;;;;;52.80;30.60;;;;;;;3.05;76.44;99615.48;107473;1273;137923;-71
2022/02/16 02:56:43;;;;;;;52.40;30.20;;;;;;;3.05;76.64;99614.63;107496;1274;107799;-71
2022/02/16 02:59:15;;;;;;;54.10;32.10;;;;;;;3.03;76.60;99613.95;107514;1273;138163;-71
2022/02/16 03:01:48;;;;;;;51.30;31.90;;;;;;;3.00;76.67;99613.13;107426;1274;96200;-70
2022/02/16 03:04:20;;;;;;;54.40;30.80;;;;;;;2.97;76.63;99608.02;107512;1273;96195;-70
2022/02/16 03:06:52;;;;;;;53.60;30.80;;;;;;;2.95;76.69;99604.10;107510;1273;138191;-70
2022/02/16 03:09:24;;;;;;;58.30;31.10;;;;;;;2.95;76.74;99602.90;107488;1273;107729;-71
2022/02/16 03:11:56;;;;;;;55.50;31.90;;;;;;;2.94;76.65;99603.77;107382;1274;138074;-71
2022/02/16 03:14:29;;;;;;;58.30;31.90;;;;;;;2.91;76.62;99598.48;107499;1273;96583;-72
2022/02/16 03:17:01;;;;;;;59.90;32.90;;;;;;;2.89;76.69;99598.16;107314;1274;138220;-72
2022/02/16 03:19:33;;;;;;;61.70;34.10;;;;;;;2.86;76.75;99594.92;107628;1273;112496;-72
2022/02/16 03:22:06;;;;;;;57.10;34.00;;;;;;;2.81;76.72;99591.20;107488;1274;107894;-72
2022/02/16 03:24:38;;;;;;;54.30;32.90;;;;;;;2.78;77.22;99586.44;107445;1274;138759;-72
2022/02/16 03:27:10;;;;;;;57.70;32.20;;;;;;;2.73;77.23;99577.40;107584;1273;96664;-72
2022/02/16 03:29:57;;;;;;;55.50;33.40;;;;;;;2.70;77.37;99575.55;107415;1273;139262;-72
2022/02/16 03:32:29;;;;;;;58.40;33.40;;;;;;;2.68;77.50;99570.05;105973;1273;111985;-71
2022/02/16 03:35:03;;;;;;;57.90;32.90;;;;;;;2.68;77.55;99564.22;106001;1273;138307;-72
2022/02/16 03:37:35;;;;;;;61.30;36.00;;;;;;;2.69;77.43;99562.15;105999;1274;108257;-72
2022/02/16 03:40:11;;;;;;;63.10;37.20;;;;;;;2.68;77.65;99561.14;106103;1273;97809;-69
2022/02/16 03:42:43;;;;;;;66.00;38.50;;;;;;;2.65;77.78;99565.12;105976;1273;137796;-70
2022/02/16 03:45:15;;;;;;;60.90;36.80;;;;;;;2.61;77.51;99566.20;106018;1274;112773;-71
2022/02/16 03:47:56;;;;;;;63.40;36.80;;;;;;;2.59;77.58;99568.10;107360;1274;139411;-71
2022/02/16 03:50:29;;;;;;;63.80;35.40;;;;;;;2.57;77.92;99568.48;107516;1273;109661;-72
2022/02/16 03:53:01;;;;;;;58.80;35.70;;;;;;;2.56;77.76;99568.31;107462;1273;138484;-72
2022/02/16 03:55:34;;;;;;;56.70;34.10;;;;;;;2.57;77.87;99566.41;107612;1274;96176;-71
2022/02/16 03:58:09;;;;;;;63.30;35.80;;;;;;;2.57;77.69;99563.51;107602;1273;110027;-72
2022/02/16 04:00:41;;;;;;;61.70;36.60;;;;;;;2.58;77.81;99559.38;106882;1273;137766;-71
2022/02/16 04:03:13;;;;;;;65.50;37.40;;;;;;;2.58;77.79;99557.48;105947;1274;108928;-71
2022/02/16 04:05:47;;;;;;;61.60;38.30;;;;;;;2.56;77.77;99556.65;106538;1274;137761;-72
2022/02/16 04:08:19;;;;;;;61.50;36.70;;;;;;;2.53;77.69;99559.95;107117;1274;97187;-72
2022/02/16 04:10:51;;;;;;;65.70;37.00;;;;;;;2.50;77.84;99563.38;105986;1274;138413;-71
2022/02/16 04:13:24;;;;;;;60.90;35.10;;;;;;;2.47;77.93;99560.67;105995;1274;108937;-71
2022/02/16 04:15:58;;;;;;;58.10;35.60;;;;;;;2.46;77.88;99558.98;106044;1274;108415;-71
2022/02/16 04:18:30;;;;;;;54.50;34.10;;;;;;;2.46;77.87;99558.45;105961;1273;138579;-71
2022/02/16 04:21:04;;;;;;;58.00;35.70;;;;;;;2.45;77.76;99560.35;105993;1273;97862;-71
2022/02/16 04:23:47;;;;;;;65.70;37.30;;;;;;;2.44;77.95;99553.67;105960;1273;138832;-71
2022/02/16 04:26:19;;;;;;;63.20;37.70;;;;;;;2.41;78.03;99552.67;106003;1274;109307;-71
2022/02/16 04:28:53;;;;;;;71.30;40.50;;;;;;;2.39;78.04;99553.90;105916;1273;138710;-71
2022/02/16 04:31:28;;;;;;;71.20;39.80;;;;;;;2.36;77.95;99551.36;106033;1272;97882;-71
2022/02/16 04:33:59;;;;;;;65.80;38.20;;;;;;;2.33;78.20;99543.32;106085;1273;97918;-71
2022/02/16 04:36:33;;;;;;;71.60;39.20;;;;;;;2.29;78.37;99538.38;105941;1273;138709;-71
2022/02/16 04:39:07;;;;;;;61.00;34.90;;;;;;;2.27;78.41;99542.86;106077;1273;108529;-71
2022/02/16 04:41:39;;;;;;;64.40;36.50;;;;;;;2.25;78.53;99539.28;105940;1273;138618;-71
2022/02/16 04:44:15;;;;;;;64.50;37.80;;;;;;;2.23;78.42;99541.54;106005;1273;97794;-71
2022/02/16 04:46:56;;;;;;;67.50;37.80;;;;;;;2.21;78.48;99536.41;105946;1274;137825;-71
2022/02/16 04:49:29;;;;;;;68.80;40.00;;;;;;;2.18;78.70;99531.98;106045;1273;111488;-72
2022/02/16 04:52:01;;;;;;;67.70;38.70;;;;;;;2.14;78.76;99531.16;106018;1271;109083;-71
2022/02/16 04:54:33;;;;;;;64.40;37.10;;;;;;;2.11;78.90;99530.67;105890;1274;139466;-71
2022/02/16 04:57:06;;;;;;;61.00;36.20;;;;;;;2.09;79.05;99530.00;107175;1274;96302;-72
2022/02/16 04:59:46;;;;;;;60.70;34.10;;;;;;;2.07;79.23;99521.79;107403;1274;139751;-72
2022/02/16 05:02:18;;;;;;;58.20;35.00;;;;;;;2.07;79.36;99518.54;107424;1274;111693;-72
2022/02/16 05:04:50;;;;;;;57.10;35.30;;;;;;;2.08;79.40;99515.95;107084;1273;138231;-71
2022/02/16 05:07:23;;;;;;;61.20;36.40;;;;;;;2.11;79.60;99510.27;107539;1273;108405;-71
2022/02/16 05:09:55;;;;;;;68.40;37.60;;;;;;;2.13;79.42;99506.79;107610;1273;95808;-72
2022/02/16 05:12:28;;;;;;;64.40;36.60;;;;;;;2.13;79.37;99505.95;107491;1273;137530;-71
2022/02/16 05:15:00;;;;;;;56.30;33.80;;;;;;;2.12;79.44;99499.80;107589;1273;112586;-72
2022/02/16 05:17:33;;;;;;;59.00;34.70;;;;;;;2.13;79.65;99494.97;107431;1274;138930;-72
2022/02/16 05:20:06;;;;;;;56.80;33.50;;;;;;;2.15;79.56;99492.05;107451;1274;109033;-72
2022/02/16 05:22:39;;;;;;;58.30;32.60;;;;;;;2.19;79.45;99488.41;107565;1273;96923;-72
2022/02/16 05:25:11;;;;;;;56.50;32.40;;;;;;;2.23;79.53;99488.70;107500;1273;138979;-72
2022/02/16 05:27:43;;;;;;;57.80;36.00;;;;;;;2.27;79.44;99491.74;107518;1273;111860;-72
2022/02/16 05:30:15;;;;;;;61.90;36.70;;;;;;;2.29;79.21;99488.63;106610;1273;137699;-71
2022/02/16 05:32:47;;;;;;;66.90;36.90;;;;;;;2.30;79.21;99484.69;106049;1274;108927;-71
2022/02/16 05:35:19;;;;;;;60.60;35.00;;;;;;;2.30;79.44;99481.77;106626;1273;138943;-72
2022/02/16 05:37:52;;;;;;;59.20;34.70;;;;;;;2.30;79.22;99481.60;107658;1273;96188;-72
2022/02/16 05:40:25;;;;;;;56.30;32.60;;;;;;;2.30;79.13;99475.24;107138;1273;111359;-71
2022/02/16 05:42:58;;;;;;;58.90;34.80;;;;;;;2.30;79.25;99473.02;106442;1273;139059;-71
2022/02/16 05:45:31;;;;;;;57.40;34.10;;;;;;;2.33;79.20;99469.55;106023;1273;109201;-71
2022/02/16 05:48:04;;;;;;;55.20;33.30;;;;;;;2.35;79.09;99469.89;106481;1273;138725;-72
2022/02/16 05:50:36;;;;;;;67.80;35.10;;;;;;;2.36;78.97;99466.44;107552;1273;96249;-72
2022/02/16 05:53:08;;;;;;;61.00;36.50;;;;;;;2.38;79.07;99471.56;107448;1273;138737;-71
2022/02/16 05:55:40;;;;;;;67.50;38.40;;;;;;;2.39;79.00;99471.22;107629;1273;106384;-71
2022/02/16 05:58:12;;;;;;;63.00;36.60;;;;;;;2.37;78.83;99467.80;107571;1273;109242;-72
2022/02/16 06:00:45;;;;;;;58.80;35.00;;;;;;;2.37;78.82;99470.04;107430;1273;138950;-72
2022/02/16 06:03:28;;;;;;;60.60;33.90;;;;;;;2.36;78.79;99474.86;107519;1273;96131;-72
2022/02/16 06:06:00;;;;;;;54.90;33.70;;;;;;;2.37;78.82;99470.20;106775;1273;138746;-71
2022/02/16 06:08:33;;;;;;;59.60;34.20;;;;;;;2.45;78.91;99467.02;105997;1274;108415;-71
2022/02/16 06:11:10;;;;;;;59.70;35.00;;;;;;;2.53;78.63;99464.70;106546;1273;138665;-71
2022/02/16 06:13:42;;;;;;;58.00;34.00;;;;;;;2.64;78.60;99464.38;106058;1273;97822;-70
2022/02/16 06:16:17;;;;;;;63.80;36.90;;;;;;;2.75;78.40;99464.77;107256;1273;95840;-72
2022/02/16 06:18:49;;;;;;;58.70;35.80;;;;;;;2.87;78.12;99471.13;107436;1274;138309;-71
2022/02/16 06:21:23;;;;;;;61.80;35.30;;;;;;;3.03;77.85;99469.70;107533;1273;109022;-71
2022/02/16 06:23:55;;;;;;;55.20;32.00;;;;;;;3.22;77.52;99469.59;107438;1274;139816;-71
2022/02/16 06:26:27;;;;;;;54.30;32.90;;;;;;;3.40;77.25;99464.00;107527;1273;96230;-71
2022/02/16 06:29:02;;;;;;;57.00;32.90;;;;;;;3.58;76.82;99465.25;107231;1273;138379;-71
2022/02/16 06:31:44;;;;;;;53.40;33.30;;;;;;;3.75;76.20;99463.61;106725;1274;112759;-72
2022/02/16 06:34:16;;;;;;;57.40;33.50;;;;;;;3.88;75.66;99452.88;107538;1273;108962;-71
2022/02/16 06:36:49;;;;;;;57.00;35.00;;;;;;;4.01;75.12;99449.05;107359;1273;137706;-71
2022/02/16 06:39:22;;;;;;;58.60;34.40;;;;;;;4.11;75.02;99444.89;107637;1273;95872;-72
2022/02/16 06:41:54;;;;;;;54.70;33.40;;;;;;;4.22;74.62;99445.88;107417;1272;138422;-71
2022/02/16 06:44:26;;;;;;;52.40;33.30;;;;;;;4.35;74.33;99444.45;107502;1273;112459;-71
2022/02/16 06:46:59;;;;;;;56.70;33.70;;;;;;;4.50;73.81;99441.22;107524;1273;138912;-72
2022/02/16 06:49:31;;;;;;;50.30;32.10;;;;;;;4.67;73.22;99445.16;107496;1273;106749;-72
2022/02/16 06:52:05;;;;;;;56.00;34.50;;;;;;;4.87;72.53;99438.71;107553;1273;96180;-71
2022/02/16 06:54:37;;;;;;;60.30;35.30;;;;;;;5.22;72.34;99433.25;107454;1273;137576;-71
2022/02/16 06:57:09;;;;;;;58.10;35.50;;;;;;;5.58;71.13;99419.80;107180;1274;112607;-70
2022/02/16 07:00:09;;;;;;;60.40;35.80;;;;;;;5.84;70.59;99421.36;105831;1273;138353;-70
2022/02/16 07:02:45;;;;;;;61.20;36.10;;;;;;;6.11;70.11;99412.73;107484;1273;109398;-72
2022/02/16 07:05:21;;;;;;;56.90;36.80;;;;;;;6.48;69.86;99413.26;105995;1273;137979;-69
2022/02/16 07:07:52;;;;;;;60.30;37.00;;;;;;;6.65;69.10;99408.95;107444;1273;96368;-71
2022/02/16 07:10:26;;;;;;;60.30;36.50;;;;;;;6.70;68.23;99411.05;107587;1274;112084;-71
2022/02/16 07:12:58;;;;;;;58.40;36.90;;;;;;;6.63;67.78;99408.31;107145;1273;138503;-71
2022/02/16 07:15:31;;;;;;;56.40;37.20;;;;;;;6.55;67.73;99408.72;107422;1273;107803;-71
2022/02/16 07:18:03;;;;;;;56.80;36.90;;;;;;;6.47;67.35;99399.98;107435;1273;139363;-71
2022/02/16 07:20:50;;;;;;;61.00;38.00;;;;;;;6.43;67.44;99399.59;107518;1273;96308;-70
2022/02/16 07:23:23;;;;;;;59.20;37.90;;;;;;;6.41;67.48;99396.68;106908;1273;139185;-73
2022/02/16 07:25:55;;;;;;;58.40;39.00;;;;;;;6.43;67.68;99391.10;106300;1274;108946;-70
2022/02/16 07:28:33;;;;;;;61.70;39.50;;;;;;;6.55;67.36;99391.44;105993;1273;109056;-71
2022/02/16 07:31:05;;;;;;;62.30;40.80;;;;;;;6.73;66.90;99384.89;106225;1273;137796;-72
2022/02/16 07:33:37;;;;;;;65.10;41.30;;;;;;;6.88;66.55;99385.45;107572;1273;97334;-72
2022/02/16 07:36:09;;;;;;;61.70;39.80;;;;;;;7.11;66.49;99382.14;107484;1274;137760;-72
2022/02/16 07:38:41;;;;;;;62.30;40.90;;;;;;;7.43;65.97;99381.26;107575;1273;108882;-72
2022/02/16 07:41:14;;;;;;;61.50;40.20;;;;;;;7.83;65.09;99390.96;107392;1273;137902;-70
2022/02/16 07:43:57;;;;;;;64.90;39.40;;;;;;;8.26;63.85;99395.70;107526;1273;96084;-72
2022/02/16 07:46:51;;;;;;;59.70;38.80;;;;;;;8.67;63.03;99387.95;107485;1273;138284;-71
2022/02/16 07:49:23;;;;;;;63.30;41.50;;;;;;;9.13;61.67;99380.07;107561;1273;112512;-71
2022/02/16 07:52:28;;;;;;;57.30;39.20;;;;;;;9.77;59.95;99373.96;107047;1273;109892;-71
2022/02/16 07:55:21;;;;;;;57.80;38.90;;;;;;;10.24;58.70;99366.36;106278;1273;137882;-70
2022/02/16 07:57:54;;;;;;;58.00;39.30;;;;;;;10.65;57.87;99361.88;107584;1273;96248;-71
2022/02/16 08:00:26;;;;;;;62.70;40.20;;;;;;;10.89;56.52;99365.97;106517;1273;139099;-70
2022/02/16 08:03:04;;;;;;;58.70;39.00;;;;;;;11.03;56.60;99369.30;106662;1274;111357;-70
2022/02/16 08:05:41;;;;;;;55.90;39.10;;;;;;;11.26;56.13;99360.52;106035;1273;139490;-70
2022/02/16 08:08:23;;;;;;;57.00;37.90;;;;;;;11.88;55.90;99356.88;105998;1273;108764;-70
2022/02/16 08:10:56;;;;;;;48.50;33.10;;;;;;;12.42;54.02;99353.16;106046;1273;97832;-71
2022/02/16 08:13:28;;;;;;;50.20;35.20;;;;;;;12.95;53.65;99345.05;105999;1273;138006;-71
2022/02/16 08:16:27;;;;;;;52.10;32.90;;;;;;;13.44;51.85;99340.86;106037;1273;111156;-71
2022/02/16 08:19:10;;;;;;;42.30;29.60;;;;;;;13.79;52.11;99340.17;107391;1273;138140;-71
2022/02/16 08:21:44;;;;;;;45.70;28.60;;;;;;;14.05;49.62;99344.00;107504;1273;108938;-71
2022/02/16 08:24:17;;;;;;;40.80;28.70;;;;;;;14.00;48.80;99336.79;107400;1273;139146;-68
2022/02/16 08:26:52;;;;;;;37.50;26.90;;;;;;;14.40;50.05;99325.94;107544;1275;96087;-68
2022/02/16 08:29:24;;;;;;;40.90;28.20;;;;;;;14.80;48.64;99320.11;107412;1274;138271;-71
2022/02/16 08:32:03;;;;;;;37.60;26.00;;;;;;;14.86;47.55;99321.80;107588;1273;108992;-69
2022/02/16 08:34:53;;;;;;;32.00;22.80;;;;;;;15.09;46.27;99312.08;107567;1273;108874;-71
2022/02/16 08:37:28;;;;;;;26.60;20.20;;;;;;;15.45;46.26;99323.75;107421;1273;137865;-67
2022/02/16 08:40:00;;;;;;;34.20;23.10;;;;;;;15.93;44.68;99306.44;107606;1273;96478;-68
2022/02/16 08:42:33;;;;;;;31.70;22.60;;;;;;;16.32;44.83;99302.31;107523;1273;138489;-68
2022/02/16 08:45:05;;;;;;;27.50;20.00;;;;;;;16.62;44.14;99306.48;107638;1273;107820;-67
2022/02/16 08:47:37;;;;;;;27.10;19.30;;;;;;;16.77;41.76;99289.31;106093;1273;138531;-68
2022/02/16 08:50:12;;;;;;;26.50;18.40;;;;;;;16.77;41.16;99279.11;106055;1273;97909;-66
2022/02/16 08:52:44;;;;;;;26.60;19.00;;;;;;;16.80;40.21;99270.10;107572;1273;96059;-68
2022/02/16 08:55:16;;;;;;;28.20;18.40;;;;;;;16.62;38.95;99267.02;107505;1273;137978;-69
2022/02/16 08:57:48;;;;;;;26.30;17.60;;;;;;;16.51;39.99;99259.21;107538;1273;107667;-68
2022/02/16 09:00:20;;;;;;;25.50;17.30;;;;;;;16.52;38.86;99259.98;105918;1273;138172;-67
2022/02/16 09:02:52;;;;;;;27.10;18.30;;;;;;;16.47;40.09;99249.14;106084;1273;98276;-67
2022/02/16 09:05:24;;;;;;;28.80;17.90;;;;;;;16.70;39.98;99249.41;106168;1273;138201;-68
2022/02/16 09:07:56;;;;;;;29.20;18.30;;;;;;;16.75;38.88;99250.42;106523;1273;112447;-68
2022/02/16 09:10:28;;;;;;;22.90;16.10;;;;;;;16.99;39.06;99240.77;106118;1273;109025;-66
2022/02/16 09:13:00;;;;;;;27.40;17.40;;;;;;;17.08;37.96;99241.33;105965;1273;136965;-68
2022/02/16 09:15:32;;;;;;;26.60;16.60;;;;;;;16.81;36.42;99246.50;107625;1273;96087;-69
2022/02/16 09:18:06;;;;;;;21.30;15.30;;;;;;;16.59;36.85;99240.39;107562;1273;138390;-70
2022/02/16 09:20:38;;;;;;;24.50;16.80;;;;;;;16.22;37.03;99224.92;107577;1273;110051;-68
2022/02/16 09:23:10;;;;;;;24.90;17.60;;;;;;;16.05;37.59;99225.69;107561;1273;138272;-67
2022/02/16 09:25:42;;;;;;;26.90;17.20;;;;;;;16.25;38.25;99222.13;107628;1273;109081;-68
2022/02/16 09:28:15;;;;;;;23.10;17.20;;;;;;;16.42;38.81;99224.56;107583;1273;96235;-68
2022/02/16 09:30:47;;;;;;;24.90;17.10;;;;;;;16.31;37.47;99232.55;107536;1273;138326;-67
2022/02/16 09:33:24;;;;;;;25.20;16.70;;;;;;;16.04;37.52;99229.23;107560;1273;112376;-67
2022/02/16 09:35:57;;;;;;;24.80;16.70;;;;;;;15.65;37.75;99229.16;105925;1273;138368;-68
2022/02/16 09:38:29;;;;;;;25.60;16.70;;;;;;;15.35;38.42;99234.69;106130;1273;110375;-67
2022/02/16 09:41:02;;;;;;;25.70;17.20;;;;;;;15.11;38.40;99233.15;106101;1273;97824;-68
2022/02/16 09:43:34;;;;;;;23.70;16.50;;;;;;;14.92;38.75;99226.74;106307;1273;137778;-68
2022/02/16 09:46:07;;;;;;;30.50;17.00;;;;;;;14.85;38.53;99229.64;105992;1273;112638;-69
2022/02/16 09:48:42;;;;;;;25.70;16.50;;;;;;;14.94;39.34;99215.23;105919;1273;139853;-68
2022/02/16 09:51:14;;;;;;;24.30;15.30;;;;;;;14.95;37.93;99224.27;106149;1273;107755;-69
2022/02/16 09:53:47;;;;;;;21.30;15.00;;;;;;;14.73;38.00;99208.73;105945;1273;138371;-68
2022/02/16 09:56:19;;;;;;;25.50;14.00;;;;;;;14.57;37.26;99209.27;106061;1273;97839;-70
2022/02/16 09:58:52;;;;;;;20.80;14.20;;;;;;;14.38;38.69;99192.30;106078;1273;110974;-73
2022/02/16 10:01:24;;;;;;;26.40;14.50;;;;;;;14.80;39.96;99185.02;107229;1273;138115;-72
2022/02/16 10:04:04;;;;;;;22.80;14.10;;;;;;;15.24;39.38;99181.85;107614;1273;109079;-73
2022/02/16 10:06:42;;;;;;;18.30;13.00;;;;;;;15.62;39.63;99181.86;107521;1273;138484;-73
2022/02/16 10:09:27;;;;;;;19.90;12.40;;;;;;;15.87;38.88;99166.12;107686;1273;96418;-73
2022/02/16 10:12:00;;;;;;;20.90;12.60;;;;;;;15.90;37.57;99162.39;107504;1273;139043;-74
2022/02/16 10:14:34;;;;;;;19.40;10.90;;;;;;;15.64;35.98;99155.80;107579;1273;108933;-73
2022/02/16 10:17:20;;;;;;;18.10;11.80;;;;;;;15.03;34.59;99169.79;107069;1273;108750;-73
2022/02/16 10:19:55;;;;;;;18.80;11.00;;;;;;;14.63;36.63;99159.73;107064;1273;138458;-72
2022/02/16 10:22:30;;;;;;;16.40;10.70;;;;;;;14.58;37.68;99148.55;107528;1273;96413;-75
2022/02/16 10:25:17;;;;;;;15.70;11.20;;;;;;;14.66;36.77;99147.42;107530;1273;138487;-74
2022/02/16 10:28:21;;;;;;;19.80;13.00;;;;;;;14.36;36.53;99138.23;107208;1273;108076;-74
2022/02/16 10:31:01;;;;;;;18.10;12.10;;;;;;;14.46;37.68;99116.58;105541;1281;138299;-72
2022/02/16 10:33:35;;;;;;;20.20;12.00;;;;;;;14.80;37.79;99118.35;106966;1279;97385;-72
2022/02/16 10:36:14;;;;;;;16.40;10.50;;;;;;;14.99;38.13;99111.61;106887;1281;138209;-72
2022/02/16 10:39:06;;;;;;;17.50;11.40;;;;;;;15.12;37.32;99102.67;107069;1280;110957;-73
2022/02/16 10:41:45;;;;;;;17.90;10.60;;;;;;;15.24;37.56;99087.16;106946;1280;138282;-72
2022/02/16 10:44:22;;;;;;;19.60;11.10;;;;;;;15.12;37.54;99086.20;106878;1279;108905;-73
2022/02/16 10:47:05;;;;;;;15.50;10.50;;;;;;;15.07;38.04;99079.38;107025;1280;96231;-73
2022/02/16 10:49:38;;;;;;;19.50;10.40;;;;;;;15.12;37.55;99070.63;106160;1279;138335;-72
2022/02/16 10:52:15;;;;;;;15.40;10.30;;;;;;;14.99;37.69;99074.17;106565;1279;112493;-73
2022/02/16 10:54:58;;;;;;;20.90;10.80;;;;;;;14.72;38.04;99069.89;106893;1279;140878;-72
2022/02/16 10:57:30;;;;;;;16.70;10.40;;;;;;;14.37;37.48;99066.11;106999;1281;107747;-72
2022/02/16 11:00:03;;;;;;;15.90;9.90;;;;;;;14.00;36.52;99061.06;106911;1279;138758;-72
2022/02/16 11:02:37;;;;;;;16.30;9.60;;;;;;;13.64;36.50;99051.45;107362;1273;96542;-72
2022/02/16 11:05:10;;;;;;;18.30;10.10;;;;;;;13.25;36.42;99049.06;107592;1273;112680;-71
2022/02/16 11:07:43;;;;;;;18.30;9.90;;;;;;;12.80;37.01;99049.48;107523;1273;137975;-72
2022/02/16 11:10:15;;;;;;;15.50;10.00;;;;;;;12.26;37.36;99039.12;107546;1273;107669;-72
2022/02/16 11:12:47;;;;;;;14.80;10.10;;;;;;;11.98;38.29;99031.67;107456;1273;138306;-73
2022/02/16 11:15:21;;;;;;;17.90;10.80;;;;;;;11.93;39.05;99027.23;107141;1273;97859;-72
2022/02/16 11:17:54;;;;;;;15.70;10.10;;;;;;;11.88;39.64;99016.77;106044;1273;138240;-73
2022/02/16 11:20:28;;;;;;;14.30;9.70;;;;;;;11.96;40.63;99014.15;107582;1273;109026;-73
2022/02/16 11:23:03;;;;;;;16.40;9.80;;;;;;;11.95;39.02;99005.88;107512;1273;108866;-72
2022/02/16 11:25:37;;;;;;;14.50;9.20;;;;;;;11.77;39.02;99008.80;106100;1273;138944;-71
2022/02/16 11:28:31;;;;;;;17.00;8.50;;;;;;;11.61;39.59;98997.67;107459;1273;96156;-71
2022/02/16 11:31:04;;;;;;;16.90;9.30;;;;;;;11.67;40.22;98989.71;107257;1273;138446;-71
2022/02/16 11:33:37;;;;;;;18.40;9.20;;;;;;;11.74;40.06;98986.85;107530;1273;108879;-73
2022/02/16 11:36:10;;;;;;;20.00;9.10;;;;;;;11.79;40.03;98983.64;105959;1273;138013;-72
2022/02/16 11:38:45;;;;;;;16.20;8.80;;;;;;;11.68;39.92;98976.73;105999;1273;97829;-72
2022/02/16 11:41:22;;;;;;;12.40;8.20;;;;;;;11.50;39.44;98978.11;107553;1272;96354;-73
2022/02/16 11:43:54;;;;;;;;;;;;;;;11.31;39.93;98978.86;107482;1273;138378;-71